sensor_id;sensor_type;location;lat;lon;timestamp;P1;durP1;ratioP1;P2;durP2;ratioP2
16029;SDS011;34770;49.272;11.070;2022-12-16T00:02:12;24.97;;;15.77;;
16029;SDS011;34770;49.272;11.070;2022-12-16T00:04:37;29.27;;;16.30;;
16029;SDS011;34770;49.272;11.070;2022-12-16T00:07:02;27.50;;;14.67;;
16029;SDS011;34770;49.272;11.070;2022-12-16T00:09:28;24.53;;;15.50;;
16029;SDS011;34770;49.272;11.070;2022-12-16T00:11:53;29.23;;;17.07;;
16029;SDS011;34770;49.272;11.070;2022-12-16T00:14:18;37.80;;;17.47;;
16029;SDS011;34770;49.272;11.070;2022-12-16T00:16:44;30.73;;;17.83;;
16029;SDS011;34770;49.272;11.070;2022-12-16T00:19:09;33.67;;;17.97;;
16029;SDS011;34770;49.272;11.070;2022-12-16T00:21:34;33.87;;;16.90;;
16029;SDS011;34770;49.272;11.070;2022-12-16T00:24:00;29.60;;;16.57;;
16029;SDS011;34770;49.272;11.070;2022-12-16T00:26:25;36.87;;;17.67;;
16029;SDS011;34770;49.272;11.070;2022-12-16T00:28:51;33.30;;;18.07;;
16029;SDS011;34770;49.272;11.070;2022-12-16T00:31:16;29.73;;;15.87;;
16029;SDS011;34770;49.272;11.070;2022-12-16T00:33:42;30.50;;;16.83;;
16029;SDS011;34770;49.272;11.070;2022-12-16T00:36:07;30.13;;;17.47;;
16029;SDS011;34770;49.272;11.070;2022-12-16T00:38:33;36.37;;;20.03;;
16029;SDS011;34770;49.272;11.070;2022-12-16T00:40:59;29.77;;;16.73;;
16029;SDS011;34770;49.272;11.070;2022-12-16T00:43:25;31.57;;;18.53;;
16029;SDS011;34770;49.272;11.070;2022-12-16T00:45:50;32.43;;;17.87;;
16029;SDS011;34770;49.272;11.070;2022-12-16T00:48:16;28.33;;;17.10;;
16029;SDS011;34770;49.272;11.070;2022-12-16T00:50:51;34.33;;;18.17;;
16029;SDS011;34770;49.272;11.070;2022-12-16T00:53:18;29.97;;;16.97;;
16029;SDS011;34770;49.272;11.070;2022-12-16T00:55:45;27.60;;;16.07;;
16029;SDS011;34770;49.272;11.070;2022-12-16T00:58:10;31.17;;;15.80;;
16029;SDS011;34770;49.272;11.070;2022-12-16T01:00:36;30.40;;;17.30;;
16029;SDS011;34770;49.272;11.070;2022-12-16T01:03:02;29.67;;;15.97;;
16029;SDS011;34770;49.272;11.070;2022-12-16T01:05:28;29.37;;;16.87;;
16029;SDS011;34770;49.272;11.070;2022-12-16T01:07:53;27.40;;;16.17;;
16029;SDS011;34770;49.272;11.070;2022-12-16T01:10:19;27.90;;;16.47;;
16029;SDS011;34770;49.272;11.070;2022-12-16T01:12:45;33.47;;;17.93;;
16029;SDS011;34770;49.272;11.070;2022-12-16T01:15:10;31.17;;;16.93;;
16029;SDS011;34770;49.272;11.070;2022-12-16T01:17:37;36.63;;;19.13;;
16029;SDS011;34770;49.272;11.070;2022-12-16T01:20:03;26.70;;;15.00;;
16029;SDS011;34770;49.272;11.070;2022-12-16T01:22:30;30.20;;;16.40;;
16029;SDS011;34770;49.272;11.070;2022-12-16T01:24:57;27.97;;;16.50;;
16029;SDS011;34770;49.272;11.070;2022-12-16T01:27:23;29.57;;;15.87;;
16029;SDS011;34770;49.272;11.070;2022-12-16T01:29:50;30.63;;;17.53;;
16029;SDS011;34770;49.272;11.070;2022-12-16T01:32:16;29.20;;;17.30;;
16029;SDS011;34770;49.272;11.070;2022-12-16T01:34:41;28.50;;;16.87;;
16029;SDS011;34770;49.272;11.070;2022-12-16T01:37:10;29.80;;;16.57;;
16029;SDS011;34770;49.272;11.070;2022-12-16T01:39:36;30.80;;;17.00;;
16029;SDS011;34770;49.272;11.070;2022-12-16T01:42:02;28.70;;;16.73;;
16029;SDS011;34770;49.272;11.070;2022-12-16T01:44:27;25.47;;;15.03;;
16029;SDS011;34770;49.272;11.070;2022-12-16T01:46:59;30.70;;;17.03;;
16029;SDS011;34770;49.272;11.070;2022-12-16T01:52:07;26.47;;;15.07;;
16029;SDS011;34770;49.272;11.070;2022-12-16T01:54:39;29.60;;;16.13;;
16029;SDS011;34770;49.272;11.070;2022-12-16T01:57:12;29.80;;;16.77;;
16029;SDS011;34770;49.272;11.070;2022-12-16T01:59:42;26.60;;;16.33;;
16029;SDS011;34770;49.272;11.070;2022-12-16T02:02:11;31.53;;;16.20;;
16029;SDS011;34770;49.272;11.070;2022-12-16T02:04:37;25.57;;;16.17;;
16029;SDS011;34770;49.272;11.070;2022-12-16T02:07:21;27.43;;;17.27;;
16029;SDS011;34770;49.272;11.070;2022-12-16T02:09:46;27.83;;;15.53;;
16029;SDS011;34770;49.272;11.070;2022-12-16T02:12:16;28.33;;;16.40;;
16029;SDS011;34770;49.272;11.070;2022-12-16T02:23:20;30.57;;;16.50;;
16029;SDS011;34770;49.272;11.070;2022-12-16T02:29:21;32.90;;;17.87;;
16029;SDS011;34770;49.272;11.070;2022-12-16T02:34:54;32.47;;;18.23;;
16029;SDS011;34770;49.272;11.070;2022-12-16T02:37:39;31.77;;;19.03;;
16029;SDS011;34770;49.272;11.070;2022-12-16T02:42:54;33.67;;;18.73;;
16029;SDS011;34770;49.272;11.070;2022-12-16T02:45:25;31.03;;;18.57;;
16029;SDS011;34770;49.272;11.070;2022-12-16T02:47:54;32.97;;;18.67;;
16029;SDS011;34770;49.272;11.070;2022-12-16T02:50:20;30.33;;;17.97;;
16029;SDS011;34770;49.272;11.070;2022-12-16T02:52:49;33.30;;;18.47;;
16029;SDS011;34770;49.272;11.070;2022-12-16T02:55:17;29.77;;;17.47;;
16029;SDS011;34770;49.272;11.070;2022-12-16T02:57:59;27.67;;;17.70;;
16029;SDS011;34770;49.272;11.070;2022-12-16T03:00:25;29.77;;;18.47;;
16029;SDS011;34770;49.272;11.070;2022-12-16T03:02:59;29.00;;;17.53;;
16029;SDS011;34770;49.272;11.070;2022-12-16T03:05:32;32.83;;;18.20;;
16029;SDS011;34770;49.272;11.070;2022-12-16T03:08:02;32.20;;;18.43;;
16029;SDS011;34770;49.272;11.070;2022-12-16T03:10:33;29.63;;;16.67;;
16029;SDS011;34770;49.272;11.070;2022-12-16T03:13:02;29.37;;;17.10;;
16029;SDS011;34770;49.272;11.070;2022-12-16T03:15:31;30.97;;;17.60;;
16029;SDS011;34770;49.272;11.070;2022-12-16T03:17:58;35.70;;;18.67;;
16029;SDS011;34770;49.272;11.070;2022-12-16T03:20:27;35.17;;;18.57;;
16029;SDS011;34770;49.272;11.070;2022-12-16T03:22:59;36.60;;;18.23;;
16029;SDS011;34770;49.272;11.070;2022-12-16T03:25:28;33.90;;;19.87;;
16029;SDS011;34770;49.272;11.070;2022-12-16T03:28:00;32.60;;;18.27;;
16029;SDS011;34770;49.272;11.070;2022-12-16T03:30:36;29.67;;;17.17;;
16029;SDS011;34770;49.272;11.070;2022-12-16T03:33:15;27.17;;;15.83;;
16029;SDS011;34770;49.272;11.070;2022-12-16T03:35:48;36.97;;;19.47;;
16029;SDS011;34770;49.272;11.070;2022-12-16T03:38:20;32.33;;;17.43;;
16029;SDS011;34770;49.272;11.070;2022-12-16T03:40:47;30.07;;;16.03;;
16029;SDS011;34770;49.272;11.070;2022-12-16T03:43:15;31.53;;;15.90;;
16029;SDS011;34770;49.272;11.070;2022-12-16T03:45:41;25.97;;;17.20;;
16029;SDS011;34770;49.272;11.070;2022-12-16T03:48:12;29.20;;;16.37;;
16029;SDS011;34770;49.272;11.070;2022-12-16T03:50:38;30.40;;;16.43;;
16029;SDS011;34770;49.272;11.070;2022-12-16T03:53:05;28.43;;;17.40;;
16029;SDS011;34770;49.272;11.070;2022-12-16T03:55:31;30.97;;;17.27;;
16029;SDS011;34770;49.272;11.070;2022-12-16T03:57:57;30.87;;;18.37;;
16029;SDS011;34770;49.272;11.070;2022-12-16T04:00:23;28.57;;;17.87;;
16029;SDS011;34770;49.272;11.070;2022-12-16T04:02:49;32.07;;;18.27;;
16029;SDS011;34770;49.272;11.070;2022-12-16T04:05:14;27.63;;;16.83;;
16029;SDS011;34770;49.272;11.070;2022-12-16T04:07:41;29.10;;;16.23;;
16029;SDS011;34770;49.272;11.070;2022-12-16T04:10:07;26.77;;;17.23;;
16029;SDS011;34770;49.272;11.070;2022-12-16T04:12:33;27.97;;;16.70;;
16029;SDS011;34770;49.272;11.070;2022-12-16T04:15:17;28.63;;;17.23;;
16029;SDS011;34770;49.272;11.070;2022-12-16T04:18:03;28.90;;;15.80;;
16029;SDS011;34770;49.272;11.070;2022-12-16T04:20:50;27.60;;;16.33;;
16029;SDS011;34770;49.272;11.070;2022-12-16T04:23:40;26.30;;;17.07;;
16029;SDS011;34770;49.272;11.070;2022-12-16T04:26:30;26.60;;;16.27;;
16029;SDS011;34770;49.272;11.070;2022-12-16T04:29:15;24.67;;;16.43;;
16029;SDS011;34770;49.272;11.070;2022-12-16T04:31:44;31.07;;;18.30;;
16029;SDS011;34770;49.272;11.070;2022-12-16T04:34:10;28.40;;;16.63;;
16029;SDS011;34770;49.272;11.070;2022-12-16T04:36:51;26.07;;;15.20;;
16029;SDS011;34770;49.272;11.070;2022-12-16T04:39:39;29.73;;;17.43;;
16029;SDS011;34770;49.272;11.070;2022-12-16T04:42:23;24.03;;;14.97;;
16029;SDS011;34770;49.272;11.070;2022-12-16T04:45:07;32.00;;;17.83;;
16029;SDS011;34770;49.272;11.070;2022-12-16T04:47:52;26.30;;;16.00;;
16029;SDS011;34770;49.272;11.070;2022-12-16T04:50:37;32.30;;;15.87;;
16029;SDS011;34770;49.272;11.070;2022-12-16T04:53:21;28.60;;;17.27;;
16029;SDS011;34770;49.272;11.070;2022-12-16T04:56:06;29.47;;;17.07;;
16029;SDS011;34770;49.272;11.070;2022-12-16T04:58:50;30.53;;;16.47;;
16029;SDS011;34770;49.272;11.070;2022-12-16T05:01:34;31.10;;;17.87;;
16029;SDS011;34770;49.272;11.070;2022-12-16T05:04:18;25.90;;;15.83;;
16029;SDS011;34770;49.272;11.070;2022-12-16T05:07:01;29.20;;;17.77;;
16029;SDS011;34770;49.272;11.070;2022-12-16T05:09:45;30.97;;;16.97;;
16029;SDS011;34770;49.272;11.070;2022-12-16T05:12:29;29.83;;;17.17;;
16029;SDS011;34770;49.272;11.070;2022-12-16T05:15:16;34.37;;;17.93;;
16029;SDS011;34770;49.272;11.070;2022-12-16T05:18:06;26.90;;;15.83;;
16029;SDS011;34770;49.272;11.070;2022-12-16T05:20:58;30.57;;;17.00;;
16029;SDS011;34770;49.272;11.070;2022-12-16T05:23:43;30.37;;;15.63;;
16029;SDS011;34770;49.272;11.070;2022-12-16T05:26:27;28.20;;;17.13;;
16029;SDS011;34770;49.272;11.070;2022-12-16T05:29:11;28.97;;;16.30;;
16029;SDS011;34770;49.272;11.070;2022-12-16T05:31:55;28.33;;;14.73;;
16029;SDS011;34770;49.272;11.070;2022-12-16T05:34:39;28.00;;;15.67;;
16029;SDS011;34770;49.272;11.070;2022-12-16T05:37:23;30.10;;;17.43;;
16029;SDS011;34770;49.272;11.070;2022-12-16T05:40:08;26.10;;;17.27;;
16029;SDS011;34770;49.272;11.070;2022-12-16T05:42:53;27.03;;;16.37;;
16029;SDS011;34770;49.272;11.070;2022-12-16T05:45:38;27.70;;;16.90;;
16029;SDS011;34770;49.272;11.070;2022-12-16T05:48:22;29.60;;;17.30;;
16029;SDS011;34770;49.272;11.070;2022-12-16T05:51:06;27.60;;;17.17;;
16029;SDS011;34770;49.272;11.070;2022-12-16T05:53:50;26.73;;;15.43;;
16029;SDS011;34770;49.272;11.070;2022-12-16T05:56:34;28.03;;;16.10;;
16029;SDS011;34770;49.272;11.070;2022-12-16T05:59:18;26.23;;;16.60;;
16029;SDS011;34770;49.272;11.070;2022-12-16T06:02:02;24.47;;;15.33;;
16029;SDS011;34770;49.272;11.070;2022-12-16T06:04:45;24.83;;;14.43;;
16029;SDS011;34770;49.272;11.070;2022-12-16T06:07:30;30.07;;;15.37;;
16029;SDS011;34770;49.272;11.070;2022-12-16T06:10:13;24.07;;;14.93;;
16029;SDS011;34770;49.272;11.070;2022-12-16T06:12:57;27.80;;;15.70;;
16029;SDS011;34770;49.272;11.070;2022-12-16T06:15:41;28.27;;;15.90;;
16029;SDS011;34770;49.272;11.070;2022-12-16T06:18:25;20.17;;;13.07;;
16029;SDS011;34770;49.272;11.070;2022-12-16T06:21:09;28.27;;;15.70;;
16029;SDS011;34770;49.272;11.070;2022-12-16T06:23:53;29.57;;;15.93;;
16029;SDS011;34770;49.272;11.070;2022-12-16T06:26:37;25.57;;;14.53;;
16029;SDS011;34770;49.272;11.070;2022-12-16T06:29:21;24.50;;;16.20;;
16029;SDS011;34770;49.272;11.070;2022-12-16T06:32:05;23.97;;;13.97;;
16029;SDS011;34770;49.272;11.070;2022-12-16T06:34:49;25.53;;;15.10;;
16029;SDS011;34770;49.272;11.070;2022-12-16T06:37:33;22.60;;;14.40;;
16029;SDS011;34770;49.272;11.070;2022-12-16T06:40:17;28.43;;;16.13;;
16029;SDS011;34770;49.272;11.070;2022-12-16T06:43:01;28.27;;;15.97;;
16029;SDS011;34770;49.272;11.070;2022-12-16T06:45:45;21.90;;;13.43;;
16029;SDS011;34770;49.272;11.070;2022-12-16T06:48:28;25.33;;;15.33;;
16029;SDS011;34770;49.272;11.070;2022-12-16T06:51:13;23.93;;;14.00;;
16029;SDS011;34770;49.272;11.070;2022-12-16T06:53:57;25.17;;;13.93;;
16029;SDS011;34770;49.272;11.070;2022-12-16T06:56:41;22.27;;;13.00;;
16029;SDS011;34770;49.272;11.070;2022-12-16T06:59:24;25.23;;;14.60;;
16029;SDS011;34770;49.272;11.070;2022-12-16T07:02:09;28.47;;;15.57;;
16029;SDS011;34770;49.272;11.070;2022-12-16T07:04:54;24.57;;;14.33;;
16029;SDS011;34770;49.272;11.070;2022-12-16T07:07:38;24.87;;;14.23;;
16029;SDS011;34770;49.272;11.070;2022-12-16T07:10:22;23.83;;;12.73;;
16029;SDS011;34770;49.272;11.070;2022-12-16T07:13:09;28.43;;;15.50;;
16029;SDS011;34770;49.272;11.070;2022-12-16T07:15:52;21.80;;;14.43;;
16029;SDS011;34770;49.272;11.070;2022-12-16T07:18:36;23.93;;;14.53;;
16029;SDS011;34770;49.272;11.070;2022-12-16T07:21:20;20.33;;;13.47;;
16029;SDS011;34770;49.272;11.070;2022-12-16T07:24:04;23.67;;;14.93;;
16029;SDS011;34770;49.272;11.070;2022-12-16T07:26:48;24.60;;;14.57;;
16029;SDS011;34770;49.272;11.070;2022-12-16T07:29:32;25.27;;;15.47;;
16029;SDS011;34770;49.272;11.070;2022-12-16T07:32:16;26.93;;;13.90;;
16029;SDS011;34770;49.272;11.070;2022-12-16T07:35:00;23.17;;;12.70;;
16029;SDS011;34770;49.272;11.070;2022-12-16T07:37:44;22.90;;;14.03;;
16029;SDS011;34770;49.272;11.070;2022-12-16T07:40:28;21.77;;;13.57;;
16029;SDS011;34770;49.272;11.070;2022-12-16T07:43:11;19.97;;;12.03;;
16029;SDS011;34770;49.272;11.070;2022-12-16T07:45:56;21.07;;;13.10;;
16029;SDS011;34770;49.272;11.070;2022-12-16T07:48:40;23.80;;;13.33;;
16029;SDS011;34770;49.272;11.070;2022-12-16T07:51:24;21.97;;;12.80;;
16029;SDS011;34770;49.272;11.070;2022-12-16T07:54:07;19.83;;;11.43;;
16029;SDS011;34770;49.272;11.070;2022-12-16T07:56:51;23.93;;;14.27;;
16029;SDS011;34770;49.272;11.070;2022-12-16T07:59:35;21.90;;;12.63;;
16029;SDS011;34770;49.272;11.070;2022-12-16T08:02:19;19.13;;;11.67;;
16029;SDS011;34770;49.272;11.070;2022-12-16T08:05:03;21.70;;;13.37;;
16029;SDS011;34770;49.272;11.070;2022-12-16T08:07:47;21.30;;;13.20;;
16029;SDS011;34770;49.272;11.070;2022-12-16T08:10:32;17.67;;;12.43;;
16029;SDS011;34770;49.272;11.070;2022-12-16T08:13:16;20.47;;;12.33;;
16029;SDS011;34770;49.272;11.070;2022-12-16T08:16:00;16.90;;;11.43;;
16029;SDS011;34770;49.272;11.070;2022-12-16T08:18:44;16.73;;;10.77;;
16029;SDS011;34770;49.272;11.070;2022-12-16T08:21:27;17.37;;;11.40;;
16029;SDS011;34770;49.272;11.070;2022-12-16T08:24:11;21.53;;;11.47;;
16029;SDS011;34770;49.272;11.070;2022-12-16T08:26:55;16.13;;;12.00;;
16029;SDS011;34770;49.272;11.070;2022-12-16T08:29:39;15.90;;;11.40;;
16029;SDS011;34770;49.272;11.070;2022-12-16T08:32:23;18.50;;;11.70;;
16029;SDS011;34770;49.272;11.070;2022-12-16T08:35:18;17.47;;;10.30;;
16029;SDS011;34770;49.272;11.070;2022-12-16T08:38:02;14.87;;;10.13;;
16029;SDS011;34770;49.272;11.070;2022-12-16T08:40:46;15.73;;;10.43;;
16029;SDS011;34770;49.272;11.070;2022-12-16T08:43:31;16.43;;;10.30;;
16029;SDS011;34770;49.272;11.070;2022-12-16T08:46:17;14.87;;;10.77;;
16029;SDS011;34770;49.272;11.070;2022-12-16T08:49:01;14.50;;;9.80;;
16029;SDS011;34770;49.272;11.070;2022-12-16T08:51:45;15.53;;;10.97;;
16029;SDS011;34770;49.272;11.070;2022-12-16T08:54:29;17.40;;;10.30;;
16029;SDS011;34770;49.272;11.070;2022-12-16T08:57:13;14.67;;;10.17;;
16029;SDS011;34770;49.272;11.070;2022-12-16T08:59:57;13.77;;;8.97;;
16029;SDS011;34770;49.272;11.070;2022-12-16T09:02:41;15.57;;;9.90;;
16029;SDS011;34770;49.272;11.070;2022-12-16T09:05:25;14.37;;;8.80;;
16029;SDS011;34770;49.272;11.070;2022-12-16T09:08:09;12.90;;;9.43;;
16029;SDS011;34770;49.272;11.070;2022-12-16T09:10:53;12.53;;;8.47;;
16029;SDS011;34770;49.272;11.070;2022-12-16T09:13:37;12.77;;;9.53;;
16029;SDS011;34770;49.272;11.070;2022-12-16T09:16:21;14.77;;;9.83;;
16029;SDS011;34770;49.272;11.070;2022-12-16T09:19:05;13.50;;;8.77;;
16029;SDS011;34770;49.272;11.070;2022-12-16T09:21:49;14.40;;;9.00;;
16029;SDS011;34770;49.272;11.070;2022-12-16T09:24:32;13.67;;;9.27;;
16029;SDS011;34770;49.272;11.070;2022-12-16T09:27:16;9.90;;;7.67;;
16029;SDS011;34770;49.272;11.070;2022-12-16T09:30:00;12.20;;;8.03;;
16029;SDS011;34770;49.272;11.070;2022-12-16T09:32:44;13.00;;;9.17;;
16029;SDS011;34770;49.272;11.070;2022-12-16T09:35:28;12.80;;;8.23;;
16029;SDS011;34770;49.272;11.070;2022-12-16T09:38:13;11.70;;;7.67;;
16029;SDS011;34770;49.272;11.070;2022-12-16T09:40:59;10.33;;;7.53;;
16029;SDS011;34770;49.272;11.070;2022-12-16T09:44:26;12.97;;;7.20;;
16029;SDS011;34770;49.272;11.070;2022-12-16T09:50:23;12.53;;;8.83;;
16029;SDS011;34770;49.272;11.070;2022-12-16T09:53:13;13.67;;;9.60;;
16029;SDS011;34770;49.272;11.070;2022-12-16T09:56:00;12.30;;;9.00;;
16029;SDS011;34770;49.272;11.070;2022-12-16T09:58:52;13.07;;;8.57;;
16029;SDS011;34770;49.272;11.070;2022-12-16T10:01:42;12.97;;;8.17;;
16029;SDS011;34770;49.272;11.070;2022-12-16T10:04:27;14.50;;;8.70;;
16029;SDS011;34770;49.272;11.070;2022-12-16T10:07:16;10.77;;;7.70;;
16029;SDS011;34770;49.272;11.070;2022-12-16T10:10:20;11.47;;;9.10;;
16029;SDS011;34770;49.272;11.070;2022-12-16T10:25:21;14.73;;;9.07;;
16029;SDS011;34770;49.272;11.070;2022-12-16T10:28:16;13.17;;;9.20;;
16029;SDS011;34770;49.272;11.070;2022-12-16T10:31:11;13.07;;;9.23;;
16029;SDS011;34770;49.272;11.070;2022-12-16T10:33:57;14.50;;;9.53;;
16029;SDS011;34770;49.272;11.070;2022-12-16T10:36:42;13.27;;;10.27;;
16029;SDS011;34770;49.272;11.070;2022-12-16T10:39:28;16.87;;;10.27;;
16029;SDS011;34770;49.272;11.070;2022-12-16T10:42:21;14.90;;;9.63;;
16029;SDS011;34770;49.272;11.070;2022-12-16T10:45:10;13.17;;;9.27;;
16029;SDS011;34770;49.272;11.070;2022-12-16T10:48:01;13.17;;;9.47;;
16029;SDS011;34770;49.272;11.070;2022-12-16T10:50:45;12.10;;;8.63;;
16029;SDS011;34770;49.272;11.070;2022-12-16T10:53:29;12.40;;;9.00;;
16029;SDS011;34770;49.272;11.070;2022-12-16T10:59:35;17.97;;;10.53;;
16029;SDS011;34770;49.272;11.070;2022-12-16T11:02:24;14.67;;;10.83;;
16029;SDS011;34770;49.272;11.070;2022-12-16T11:11:12;13.97;;;10.50;;
16029;SDS011;34770;49.272;11.070;2022-12-16T11:14:23;14.37;;;10.03;;
16029;SDS011;34770;49.272;11.070;2022-12-16T11:20:12;26.37;;;15.87;;
16029;SDS011;34770;49.272;11.070;2022-12-16T11:26:14;23.63;;;14.87;;
16029;SDS011;34770;49.272;11.070;2022-12-16T11:29:14;31.70;;;21.30;;
16029;SDS011;34770;49.272;11.070;2022-12-16T11:32:05;18.60;;;11.10;;
16029;SDS011;34770;49.272;11.070;2022-12-16T11:34:57;21.63;;;13.80;;
16029;SDS011;34770;49.272;11.070;2022-12-16T11:37:43;21.17;;;12.13;;
16029;SDS011;34770;49.272;11.070;2022-12-16T11:40:29;17.33;;;11.37;;
16029;SDS011;34770;49.272;11.070;2022-12-16T11:43:15;14.17;;;10.10;;
16029;SDS011;34770;49.272;11.070;2022-12-16T11:46:02;18.73;;;11.33;;
16029;SDS011;34770;49.272;11.070;2022-12-16T11:48:53;16.70;;;10.00;;
16029;SDS011;34770;49.272;11.070;2022-12-16T11:51:42;13.20;;;7.80;;
16029;SDS011;34770;49.272;11.070;2022-12-16T11:54:43;18.50;;;11.00;;
16029;SDS011;34770;49.272;11.070;2022-12-16T11:57:43;17.80;;;10.67;;
16029;SDS011;34770;49.272;11.070;2022-12-16T12:00:35;16.47;;;11.30;;
16029;SDS011;34770;49.272;11.070;2022-12-16T12:03:26;18.47;;;10.57;;
16029;SDS011;34770;49.272;11.070;2022-12-16T12:06:22;14.13;;;9.63;;
16029;SDS011;34770;49.272;11.070;2022-12-16T12:09:20;15.60;;;10.93;;
16029;SDS011;34770;49.272;11.070;2022-12-16T12:31:05;18.83;;;11.43;;
16029;SDS011;34770;49.272;11.070;2022-12-16T12:43:21;21.10;;;11.90;;
16029;SDS011;34770;49.272;11.070;2022-12-16T12:46:16;18.53;;;12.83;;
16029;SDS011;34770;49.272;11.070;2022-12-16T12:49:35;17.70;;;12.53;;
16029;SDS011;34770;49.272;11.070;2022-12-16T12:59:15;24.97;;;13.50;;
16029;SDS011;34770;49.272;11.070;2022-12-16T13:02:18;18.40;;;12.60;;
16029;SDS011;34770;49.272;11.070;2022-12-16T13:05:10;20.63;;;12.00;;
16029;SDS011;34770;49.272;11.070;2022-12-16T13:08:29;21.17;;;13.83;;
16029;SDS011;34770;49.272;11.070;2022-12-16T13:11:18;16.60;;;12.00;;
16029;SDS011;34770;49.272;11.070;2022-12-16T13:14:07;18.10;;;12.50;;
16029;SDS011;34770;49.272;11.070;2022-12-16T13:19:59;21.63;;;14.00;;
16029;SDS011;34770;49.272;11.070;2022-12-16T13:22:43;21.07;;;13.53;;
16029;SDS011;34770;49.272;11.070;2022-12-16T13:25:33;20.30;;;12.70;;
16029;SDS011;34770;49.272;11.070;2022-12-16T13:31:14;22.53;;;13.47;;
16029;SDS011;34770;49.272;11.070;2022-12-16T13:34:02;21.23;;;12.23;;
16029;SDS011;34770;49.272;11.070;2022-12-16T13:37:03;24.20;;;13.77;;
16029;SDS011;34770;49.272;11.070;2022-12-16T13:49:42;20.57;;;13.80;;
16029;SDS011;34770;49.272;11.070;2022-12-16T13:55:55;21.60;;;12.47;;
16029;SDS011;34770;49.272;11.070;2022-12-16T13:58:51;20.73;;;14.23;;
16029;SDS011;34770;49.272;11.070;2022-12-16T14:01:43;21.50;;;13.60;;
16029;SDS011;34770;49.272;11.070;2022-12-16T14:04:38;23.07;;;13.07;;
16029;SDS011;34770;49.272;11.070;2022-12-16T14:07:26;23.27;;;13.30;;
16029;SDS011;34770;49.272;11.070;2022-12-16T14:10:32;22.30;;;14.23;;
16029;SDS011;34770;49.272;11.070;2022-12-16T14:13:26;24.00;;;12.73;;
16029;SDS011;34770;49.272;11.070;2022-12-16T14:19:06;21.13;;;13.40;;
16029;SDS011;34770;49.272;11.070;2022-12-16T14:25:23;23.37;;;12.80;;
16029;SDS011;34770;49.272;11.070;2022-12-16T14:34:16;22.60;;;13.33;;
16029;SDS011;34770;49.272;11.070;2022-12-16T14:39:56;19.90;;;12.73;;
16029;SDS011;34770;49.272;11.070;2022-12-16T14:42:40;23.60;;;14.40;;
16029;SDS011;34770;49.272;11.070;2022-12-16T14:45:28;21.00;;;13.80;;
16029;SDS011;34770;49.272;11.070;2022-12-16T14:54:40;23.07;;;13.80;;
16029;SDS011;34770;49.272;11.070;2022-12-16T14:57:26;21.70;;;12.43;;
16029;SDS011;34770;49.272;11.070;2022-12-16T15:00:13;22.60;;;13.13;;
16029;SDS011;34770;49.272;11.070;2022-12-16T15:03:20;21.87;;;15.37;;
16029;SDS011;34770;49.272;11.070;2022-12-16T15:06:08;24.00;;;14.63;;
16029;SDS011;34770;49.272;11.070;2022-12-16T15:09:01;28.33;;;14.57;;
16029;SDS011;34770;49.272;11.070;2022-12-16T15:11:46;22.63;;;14.20;;
16029;SDS011;34770;49.272;11.070;2022-12-16T15:14:35;23.40;;;13.57;;
16029;SDS011;34770;49.272;11.070;2022-12-16T15:17:23;26.57;;;15.00;;
16029;SDS011;34770;49.272;11.070;2022-12-16T15:20:18;22.37;;;14.33;;
16029;SDS011;34770;49.272;11.070;2022-12-16T15:23:10;22.73;;;14.70;;
16029;SDS011;34770;49.272;11.070;2022-12-16T15:26:03;23.13;;;12.90;;
16029;SDS011;34770;49.272;11.070;2022-12-16T15:28:48;25.53;;;13.80;;
16029;SDS011;34770;49.272;11.070;2022-12-16T15:31:33;24.43;;;14.83;;
16029;SDS011;34770;49.272;11.070;2022-12-16T15:39:55;23.43;;;14.57;;
16029;SDS011;34770;49.272;11.070;2022-12-16T15:42:39;27.77;;;15.63;;
16029;SDS011;34770;49.272;11.070;2022-12-16T15:45:28;24.87;;;15.83;;
16029;SDS011;34770;49.272;11.070;2022-12-16T15:54:50;22.97;;;14.87;;
16029;SDS011;34770;49.272;11.070;2022-12-16T15:57:36;24.03;;;14.87;;
16029;SDS011;34770;49.272;11.070;2022-12-16T16:06:21;23.30;;;15.00;;
16029;SDS011;34770;49.272;11.070;2022-12-16T16:09:13;24.13;;;14.87;;
16029;SDS011;34770;49.272;11.070;2022-12-16T16:12:05;23.17;;;14.73;;
16029;SDS011;34770;49.272;11.070;2022-12-16T16:14:51;25.47;;;14.97;;
16029;SDS011;34770;49.272;11.070;2022-12-16T16:17:35;24.70;;;15.37;;
16029;SDS011;34770;49.272;11.070;2022-12-16T16:20:19;17.80;;;10.27;;
16029;SDS011;34770;49.272;11.070;2022-12-16T16:23:03;29.37;;;15.90;;
16029;SDS011;34770;49.272;11.070;2022-12-16T16:25:47;23.33;;;14.23;;
16029;SDS011;34770;49.272;11.070;2022-12-16T16:28:32;23.83;;;13.93;;
16029;SDS011;34770;49.272;11.070;2022-12-16T16:31:17;25.30;;;15.57;;
16029;SDS011;34770;49.272;11.070;2022-12-16T16:34:02;24.17;;;14.47;;
16029;SDS011;34770;49.272;11.070;2022-12-16T16:36:51;26.23;;;14.70;;
16029;SDS011;34770;49.272;11.070;2022-12-16T16:39:37;23.07;;;15.33;;
16029;SDS011;34770;49.272;11.070;2022-12-16T16:42:22;21.57;;;13.17;;
16029;SDS011;34770;49.272;11.070;2022-12-16T16:45:05;24.77;;;14.80;;
16029;SDS011;34770;49.272;11.070;2022-12-16T16:47:51;24.30;;;14.77;;
16029;SDS011;34770;49.272;11.070;2022-12-16T16:50:45;26.57;;;16.17;;
16029;SDS011;34770;49.272;11.070;2022-12-16T16:53:29;27.73;;;15.03;;
16029;SDS011;34770;49.272;11.070;2022-12-16T16:56:13;26.97;;;14.77;;
16029;SDS011;34770;49.272;11.070;2022-12-16T16:58:57;26.60;;;15.77;;
16029;SDS011;34770;49.272;11.070;2022-12-16T17:01:41;27.03;;;14.70;;
16029;SDS011;34770;49.272;11.070;2022-12-16T17:04:25;27.53;;;14.17;;
16029;SDS011;34770;49.272;11.070;2022-12-16T17:07:25;24.60;;;14.97;;
16029;SDS011;34770;49.272;11.070;2022-12-16T17:10:09;27.87;;;16.33;;
16029;SDS011;34770;49.272;11.070;2022-12-16T17:12:53;26.93;;;14.90;;
16029;SDS011;34770;49.272;11.070;2022-12-16T17:15:37;23.43;;;14.13;;
16029;SDS011;34770;49.272;11.070;2022-12-16T17:18:22;19.53;;;13.63;;
16029;SDS011;34770;49.272;11.070;2022-12-16T17:21:06;21.73;;;13.93;;
16029;SDS011;34770;49.272;11.070;2022-12-16T17:23:50;27.63;;;14.73;;
16029;SDS011;34770;49.272;11.070;2022-12-16T17:26:35;24.80;;;13.67;;
16029;SDS011;34770;49.272;11.070;2022-12-16T17:29:24;24.03;;;14.17;;
16029;SDS011;34770;49.272;11.070;2022-12-16T17:32:09;27.83;;;15.53;;
16029;SDS011;34770;49.272;11.070;2022-12-16T17:34:53;23.17;;;13.90;;
16029;SDS011;34770;49.272;11.070;2022-12-16T17:37:37;28.17;;;17.43;;
16029;SDS011;34770;49.272;11.070;2022-12-16T17:40:21;25.03;;;15.33;;
16029;SDS011;34770;49.272;11.070;2022-12-16T17:43:05;20.80;;;13.93;;
16029;SDS011;34770;49.272;11.070;2022-12-16T17:45:58;23.67;;;14.17;;
16029;SDS011;34770;49.272;11.070;2022-12-16T17:48:42;29.60;;;17.37;;
16029;SDS011;34770;49.272;11.070;2022-12-16T17:51:26;26.07;;;15.43;;
16029;SDS011;34770;49.272;11.070;2022-12-16T17:54:10;28.23;;;15.17;;
16029;SDS011;34770;49.272;11.070;2022-12-16T17:56:54;25.27;;;14.87;;
16029;SDS011;34770;49.272;11.070;2022-12-16T17:59:38;22.40;;;15.93;;
16029;SDS011;34770;49.272;11.070;2022-12-16T18:02:22;26.50;;;15.63;;